Verhneimbatsk, Russia
Current Conditions -  °F | °C
As of 10:30 AM on Wednesday 22 Oct 2014 (Local Time) from USNN Reporting Station
Broken Clouds Broken Clouds  
Wind Chill: -13°   Ceiling: 1300
Heat Index:   Visibility: 6mi
Dew Point: -4°   Wind: 11mph
Humidity: 72%   Direction: 220°SW
Pressure: 29.77"   Gusts: NA
Location:  63.15°N, 87.95°E
Report Text: USNN 220330Z 22005MPS 9999 BKN013 BKN059 M16/M20 Q1008 NOSIGRMK QFE751 21410262
Loading
Personal Weather Stations






























Interactive Weather Map
Tropical Storm Tracking
New forecast layout! Learn more

10-Day Weather Forecast

Advertisements
Track Severe Weather on mobile